createdAt,value
2023-04-22T00:00:28.991Z,97609.84
2023-04-22T00:02:56.555Z,97601.53
2023-04-22T00:05:23.948Z,97603.22
2023-04-22T00:07:51.129Z,97598.22
2023-04-22T00:10:18.699Z,97600.84
2023-04-22T00:12:45.667Z,97598.56
2023-04-22T00:15:12.961Z,97595.53
2023-04-22T00:17:40.986Z,97602.06
2023-04-22T00:20:10.821Z,97596.19
2023-04-22T00:22:37.871Z,97596.34
2023-04-22T00:25:05.547Z,97595.13
2023-04-22T00:27:32.752Z,97596.53
2023-04-22T00:29:59.888Z,97597.56
2023-04-22T00:32:27.356Z,97587.47
2023-04-22T00:34:55.095Z,97584.69
2023-04-22T00:37:22.194Z,97581.31
2023-04-22T00:39:49.551Z,97578.63
2023-04-22T00:42:17.577Z,97583.88
2023-04-22T00:44:47.265Z,97584.00
2023-04-22T00:47:14.879Z,97585.38
2023-04-22T00:49:42.335Z,97583.38
2023-04-22T00:52:09.311Z,97590.13
2023-04-22T00:54:36.849Z,97592.31
2023-04-22T00:57:04.445Z,97593.22
2023-04-22T00:59:31.588Z,97595.34
2023-04-22T01:01:59.048Z,97600.91
2023-04-22T01:04:26.220Z,97591.63
2023-04-22T01:06:56.413Z,97591.41
2023-04-22T01:09:23.441Z,97596.25
2023-04-22T01:11:50.695Z,97594.06
2023-04-22T01:14:18.066Z,97590.81
2023-04-22T01:16:45.918Z,97594.88
2023-04-22T01:19:13.430Z,97594.06
2023-04-22T01:21:41.605Z,97597.28
2023-04-22T01:24:09.607Z,97599.59
2023-04-22T01:26:37.295Z,97597.97
2023-04-22T01:29:05.474Z,97595.44
2023-04-22T01:31:33.336Z,97592.31
2023-04-22T01:34:00.972Z,97599.16
2023-04-22T01:36:28.502Z,97598.81
2023-04-22T01:38:56.295Z,97601.81
2023-04-22T01:41:23.416Z,97595.78
2023-04-22T01:43:53.349Z,97600.19
2023-04-22T01:46:20.507Z,97599.69
2023-04-22T01:48:51.425Z,97602.53
2023-04-22T01:51:20.816Z,97606.84
2023-04-22T01:53:48.758Z,97606.72
2023-04-22T01:56:16.282Z,97606.53
2023-04-22T01:58:44.048Z,97598.06
2023-04-22T02:01:12.639Z,97602.38
2023-04-22T02:03:39.657Z,97599.22
2023-04-22T02:06:07.699Z,97596.34
2023-04-22T02:08:34.806Z,97602.19
2023-04-22T02:11:02.165Z,97607.38
2023-04-22T02:13:40.951Z,97604.06
2023-04-22T02:16:08.699Z,97607.16
2023-04-22T02:18:35.965Z,97605.34
2023-04-22T02:21:05.433Z,97618.16
2023-04-22T02:23:32.712Z,97617.50
2023-04-22T02:25:59.681Z,97609.13
2023-04-22T02:28:26.750Z,97611.72
2023-04-22T02:30:53.757Z,97612.44
2023-04-22T02:33:23.328Z,97613.22
2023-04-22T02:35:51.812Z,97624.44
2023-04-22T02:38:19.923Z,97612.81
2023-04-22T02:40:47.057Z,97618.09
2023-04-22T02:43:14.425Z,97617.50
2023-04-22T02:45:41.898Z,97617.72
2023-04-22T02:48:09.262Z,97614.72
2023-04-22T02:50:36.583Z,97616.69
2023-04-22T02:53:03.664Z,97614.38
2023-04-22T02:55:30.622Z,97621.28
2023-04-22T02:57:57.684Z,97624.00
2023-04-22T03:00:24.761Z,97622.53
2023-04-22T03:02:52.124Z,97635.91
2023-04-22T03:05:23.299Z,97624.78
2023-04-22T03:07:50.409Z,97635.03
2023-04-22T03:10:17.592Z,97634.47
2023-04-22T03:12:45.483Z,97627.72
2023-04-22T03:15:12.977Z,97627.59
2023-04-22T03:17:40.480Z,97625.34
2023-04-22T03:20:11.755Z,97625.94
2023-04-22T03:22:38.954Z,97625.25
2023-04-22T03:25:08.448Z,97624.28
2023-04-22T03:27:35.786Z,97624.53
2023-04-22T03:30:04.658Z,97621.91
2023-04-22T03:32:31.721Z,97622.47
2023-04-22T03:35:16.609Z,97621.28
2023-04-22T03:37:46.233Z,97618.03
2023-04-22T03:40:17.980Z,97625.72
2023-04-22T03:42:45.170Z,97621.03
2023-04-22T03:45:12.305Z,97619.25
2023-04-22T03:47:44.688Z,97619.72
2023-04-22T03:50:21.311Z,97617.22
2023-04-22T03:52:50.396Z,97620.84
2023-04-22T03:55:20.756Z,97616.72
2023-04-22T03:57:50.813Z,97615.28
2023-04-22T04:00:17.952Z,97620.81
2023-04-22T04:02:51.987Z,97615.69
2023-04-22T04:05:24.599Z,97612.81
2023-04-22T04:07:51.776Z,97617.47
2023-04-22T04:10:18.798Z,97611.00
2023-04-22T04:12:46.392Z,97613.56
2023-04-22T04:15:13.514Z,97607.91
2023-04-22T04:17:41.015Z,97617.84
2023-04-22T04:20:09.149Z,97608.47
2023-04-22T04:22:37.648Z,97609.56
2023-04-22T04:25:06.894Z,97607.50
2023-04-22T04:27:39.402Z,97606.78
2023-04-22T04:30:07.693Z,97610.41
2023-04-22T04:32:43.017Z,97597.72
2023-04-22T04:35:14.113Z,97597.38
2023-04-22T04:37:44.603Z,97602.78
2023-04-22T04:40:14.805Z,97602.44
2023-04-22T04:42:47.984Z,97588.41
2023-04-22T04:45:22.422Z,97590.97
2023-04-22T04:47:51.082Z,97595.13
2023-04-22T04:50:23.816Z,97589.72
2023-04-22T04:52:52.738Z,97601.31
2023-04-22T04:55:24.565Z,97598.13
2023-04-22T04:57:52.033Z,97603.91
2023-04-22T05:00:19.611Z,97607.91
2023-04-22T05:02:47.161Z,97617.94
2023-04-22T05:05:14.743Z,97612.75
2023-04-22T05:07:43.716Z,97612.16
2023-04-22T05:10:12.541Z,97611.22
2023-04-22T05:12:40.915Z,97618.59
2023-04-22T05:15:11.361Z,97624.88
2023-04-22T05:17:39.907Z,97616.16
2023-04-22T05:20:07.822Z,97614.69
2023-04-22T05:22:38.626Z,97617.19
2023-04-22T05:25:06.211Z,97626.59
2023-04-22T05:27:33.892Z,97623.25
2023-04-22T05:30:02.595Z,97624.25
2023-04-22T05:32:31.971Z,97630.28
2023-04-22T05:34:59.062Z,97618.47
2023-04-22T05:37:26.513Z,97617.13
2023-04-22T05:39:53.512Z,97622.22
2023-04-22T05:42:21.299Z,97621.47
2023-04-22T05:44:49.260Z,97623.41
2023-04-22T05:47:16.933Z,97624.72
2023-04-22T05:49:44.258Z,97616.03
2023-04-22T05:52:20.798Z,97620.03
2023-04-22T05:55:10.377Z,97621.28
2023-04-22T05:57:37.974Z,97622.06
2023-04-22T06:00:10.587Z,97617.72
2023-04-22T06:02:40.691Z,97615.75
2023-04-22T06:05:08.810Z,97615.06
2023-04-22T06:07:36.258Z,97616.88
2023-04-22T06:10:07.027Z,97623.25
2023-04-22T06:12:35.179Z,97623.41
2023-04-22T06:15:02.227Z,97618.34
2023-04-22T06:17:29.270Z,97622.97
2023-04-22T06:19:57.000Z,97624.41
2023-04-22T06:22:23.998Z,97624.69
2023-04-22T06:24:51.053Z,97628.75
2023-04-22T06:27:18.028Z,97635.53
2023-04-22T06:29:45.311Z,97638.09
2023-04-22T06:32:13.151Z,97634.28
2023-04-22T06:34:42.311Z,97645.97
2023-04-22T06:37:09.532Z,97640.81
2023-04-22T06:39:36.795Z,97639.31
2023-04-22T06:42:13.049Z,97640.41
2023-04-22T06:45:12.894Z,97641.44
2023-04-22T06:47:59.077Z,97635.47
2023-04-22T06:50:36.516Z,97640.53
2023-04-22T06:53:03.929Z,97636.97
2023-04-22T06:55:31.029Z,97640.66
2023-04-22T06:57:58.711Z,97627.66
2023-04-22T07:00:26.855Z,97638.28
2023-04-22T07:02:54.109Z,97636.81
2023-04-22T07:05:21.740Z,97638.94
2023-04-22T07:07:49.367Z,97633.13
2023-04-22T07:10:20.630Z,97638.75
2023-04-22T07:13:16.615Z,97636.25
2023-04-22T07:15:46.209Z,97640.53
2023-04-22T07:18:13.597Z,97645.75
2023-04-22T07:20:40.800Z,97654.06
2023-04-22T07:23:07.942Z,97647.53
2023-04-22T07:25:35.428Z,97645.06
2023-04-22T07:28:02.682Z,97638.81
2023-04-22T07:30:30.182Z,97633.56
2023-04-22T07:32:57.687Z,97628.44
2023-04-22T07:35:25.018Z,97631.72
2023-04-22T07:37:52.480Z,97620.84
2023-04-22T07:40:20.173Z,97627.00
2023-04-22T07:42:47.330Z,97630.41
2023-04-22T07:45:14.739Z,97631.50
2023-04-22T07:47:42.260Z,97631.41
2023-04-22T07:50:09.787Z,97627.88
2023-04-22T07:52:37.198Z,97626.38
2023-04-22T07:55:04.930Z,97623.53
2023-04-22T07:57:36.202Z,97611.34
2023-04-22T08:00:03.645Z,97609.59
2023-04-22T08:02:39.843Z,97600.47
2023-04-22T08:05:07.569Z,97598.69
2023-04-22T08:07:34.616Z,97604.59
2023-04-22T08:10:02.039Z,97605.84
2023-04-22T08:12:29.098Z,97596.81
2023-04-22T08:14:57.967Z,97604.47
2023-04-22T08:17:25.191Z,97608.16
2023-04-22T08:19:52.580Z,97611.78
2023-04-22T08:22:20.161Z,97605.81
2023-04-22T08:24:47.166Z,97603.25
2023-04-22T08:27:14.287Z,97607.28
2023-04-22T08:29:42.132Z,97607.66
2023-04-22T08:32:09.566Z,97606.28
2023-04-22T08:34:37.210Z,97615.00
2023-04-22T08:37:04.651Z,97610.28
2023-04-22T08:39:31.693Z,97620.69
2023-04-22T08:41:59.056Z,97612.97
2023-04-22T08:44:26.923Z,97620.72
2023-04-22T08:46:54.599Z,97615.06
2023-04-22T08:49:25.179Z,97613.16
2023-04-22T08:51:53.506Z,97618.72
2023-04-22T08:54:23.966Z,97623.53
2023-04-22T08:56:51.794Z,97616.38
2023-04-22T08:59:20.707Z,97620.50
2023-04-22T09:01:53.531Z,97620.16
2023-04-22T09:04:21.067Z,97623.75
2023-04-22T09:06:48.349Z,97620.22
2023-04-22T09:09:15.923Z,97618.28
2023-04-22T09:11:42.943Z,97612.03
2023-04-22T09:14:10.169Z,97615.28
2023-04-22T09:16:47.940Z,97600.69
2023-04-22T09:19:15.753Z,97610.66
2023-04-22T09:21:43.240Z,97608.72
2023-04-22T09:24:12.162Z,97605.38
2023-04-22T09:26:43.950Z,97609.00
2023-04-22T09:29:16.350Z,97604.59
2023-04-22T09:31:48.829Z,97598.31
2023-04-22T09:34:15.979Z,97608.19
2023-04-22T09:36:44.056Z,97597.25
2023-04-22T09:39:11.727Z,97598.72
2023-04-22T09:41:41.142Z,97601.88
2023-04-22T09:44:16.722Z,97606.63
2023-04-22T09:46:44.841Z,97602.63
2023-04-22T09:49:12.261Z,97593.81
2023-04-22T09:51:42.590Z,97597.97
2023-04-22T09:54:10.791Z,97583.13
2023-04-22T09:56:52.508Z,97586.13
2023-04-22T09:59:23.718Z,97582.34
2023-04-22T10:02:07.253Z,97585.56
2023-04-22T10:04:34.675Z,97576.94
2023-04-22T10:07:04.894Z,97574.75
2023-04-22T10:09:32.277Z,97571.84
2023-04-22T10:11:59.623Z,97567.59
2023-04-22T10:14:27.078Z,97566.78
2023-04-22T10:17:00.309Z,97556.69
2023-04-22T10:19:27.964Z,97559.34
2023-04-22T10:21:58.560Z,97551.91
2023-04-22T10:24:35.105Z,97556.00
2023-04-22T10:27:08.592Z,97551.97
2023-04-22T10:29:43.396Z,97564.66
2023-04-22T10:32:11.063Z,97557.84
2023-04-22T10:34:41.416Z,97556.44
2023-04-22T10:37:11.875Z,97550.09
2023-04-22T10:39:42.818Z,97558.47
2023-04-22T10:42:17.518Z,97548.25
2023-04-22T10:45:01.810Z,97550.91
2023-04-22T10:47:39.054Z,97555.50
2023-04-22T10:50:26.510Z,97545.06
2023-04-22T10:52:58.372Z,97534.22
2023-04-22T10:55:26.294Z,97534.78
2023-04-22T10:57:54.278Z,97534.88
2023-04-22T11:00:45.671Z,97530.22
2023-04-22T11:03:26.041Z,97523.53
2023-04-22T11:06:17.941Z,97526.47
2023-04-22T11:08:50.484Z,97518.13
2023-04-22T11:11:19.150Z,97513.28
2023-04-22T11:13:50.655Z,97515.75
2023-04-22T11:16:19.826Z,97504.97
2023-04-22T11:18:48.236Z,97509.78
2023-04-22T11:21:15.622Z,97507.25
2023-04-22T11:23:54.300Z,97498.94
2023-04-22T11:26:35.215Z,97509.63
2023-04-22T11:29:02.424Z,97506.88
2023-04-22T11:31:29.662Z,97503.06
2023-04-22T11:34:00.453Z,97500.16
2023-04-22T11:36:27.779Z,97503.13
2023-04-22T11:38:56.395Z,97499.75
2023-04-22T11:41:23.968Z,97488.34
2023-04-22T11:43:51.435Z,97499.22
2023-04-22T11:46:30.420Z,97497.22
2023-04-22T11:49:16.715Z,97494.19
2023-04-22T11:51:55.821Z,97497.19
2023-04-22T11:54:37.864Z,97492.13
2023-04-22T11:57:15.508Z,97486.56
2023-04-22T11:59:43.025Z,97487.94
2023-04-22T12:02:10.621Z,97487.09
2023-04-22T12:04:42.192Z,97481.09
2023-04-22T12:07:09.266Z,97474.72
2023-04-22T12:09:36.373Z,97481.13
2023-04-22T12:12:04.820Z,97484.28
2023-04-22T12:14:35.862Z,97490.19
2023-04-22T12:17:09.693Z,97491.28
2023-04-22T12:19:37.918Z,97486.84
2023-04-22T12:22:05.107Z,97490.72
2023-04-22T12:24:32.705Z,97474.00
2023-04-22T12:27:00.051Z,97466.94
2023-04-22T12:29:31.000Z,97477.03
2023-04-22T12:31:58.429Z,97494.81
2023-04-22T12:34:25.921Z,97480.22
2023-04-22T12:36:52.989Z,97477.69
2023-04-22T12:39:20.494Z,97476.03
2023-04-22T12:41:50.943Z,97479.56
2023-04-22T12:44:17.916Z,97473.34
2023-04-22T12:46:45.267Z,97474.84
2023-04-22T12:49:14.441Z,97463.81
2023-04-22T12:51:42.157Z,97461.72
2023-04-22T12:54:10.656Z,97468.19
2023-04-22T12:56:37.670Z,97467.25
2023-04-22T12:59:04.972Z,97487.34
2023-04-22T13:01:33.756Z,97472.69
2023-04-22T13:04:01.935Z,97470.78
2023-04-22T13:06:29.546Z,97472.97
2023-04-22T13:08:56.486Z,97484.19
2023-04-22T13:11:24.617Z,97481.41
2023-04-22T13:13:52.297Z,97486.84
2023-04-22T13:16:20.169Z,97485.09
2023-04-22T13:18:47.592Z,97481.38
2023-04-22T13:21:15.272Z,97482.09
2023-04-22T13:23:43.249Z,97472.22
2023-04-22T13:26:10.616Z,97474.47
2023-04-22T13:28:38.187Z,97464.84
2023-04-22T13:31:05.298Z,97460.03
2023-04-22T13:33:32.293Z,97462.94
2023-04-22T13:35:59.358Z,97448.41
2023-04-22T13:38:27.070Z,97446.25
2023-04-22T13:40:54.429Z,97453.34
2023-04-22T13:43:22.061Z,97446.72
2023-04-22T13:45:49.252Z,97447.06
2023-04-22T13:48:16.294Z,97449.50
2023-04-22T13:50:43.886Z,97444.63
2023-04-22T13:53:11.852Z,97457.22
2023-04-22T13:55:39.999Z,97464.00
2023-04-22T13:58:08.317Z,97452.50
2023-04-22T14:00:35.966Z,97460.59
2023-04-22T14:03:03.338Z,97454.66
2023-04-22T14:05:30.875Z,97455.72
2023-04-22T14:07:59.202Z,97465.44
2023-04-22T14:10:28.381Z,97462.72
2023-04-22T14:12:55.844Z,97447.72
2023-04-22T14:15:22.845Z,97463.13
2023-04-22T14:17:49.975Z,97461.19
2023-04-22T14:20:19.353Z,97462.41
2023-04-22T14:22:46.714Z,97460.69
2023-04-22T14:25:14.476Z,97466.09
2023-04-22T14:27:41.580Z,97468.78
2023-04-22T14:30:09.238Z,97464.56
2023-04-22T14:32:37.275Z,97472.50
2023-04-22T14:35:04.772Z,97469.34
2023-04-22T14:37:32.235Z,97472.09
2023-04-22T14:39:59.256Z,97474.75
2023-04-22T14:42:26.364Z,97477.63
2023-04-22T14:44:53.636Z,97476.56
2023-04-22T14:47:20.577Z,97473.56
2023-04-22T14:49:47.610Z,97470.75
2023-04-22T14:52:15.186Z,97475.34
2023-04-22T14:54:42.161Z,97478.63
2023-04-22T14:57:09.148Z,97478.38
2023-04-22T14:59:36.425Z,97479.94
2023-04-22T15:02:05.384Z,97474.78
2023-04-22T15:04:32.663Z,97472.31
2023-04-22T15:07:00.090Z,97475.00
2023-04-22T15:09:27.885Z,97474.63
2023-04-22T15:11:56.576Z,97478.88
2023-04-22T15:14:23.720Z,97473.38
2023-04-22T15:16:50.730Z,97476.00
2023-04-22T15:19:17.669Z,97469.38
2023-04-22T15:21:44.712Z,97472.34
2023-04-22T15:24:12.243Z,97471.28
2023-04-22T15:26:40.572Z,97480.38
2023-04-22T15:29:07.794Z,97478.38
2023-04-22T15:31:35.072Z,97483.94
2023-04-22T15:34:02.031Z,97475.88
2023-04-22T15:36:30.059Z,97473.09
2023-04-22T15:38:57.095Z,97474.84
2023-04-22T15:41:24.947Z,97476.06
2023-04-22T15:43:53.150Z,97479.75
2023-04-22T15:46:20.785Z,97475.16
2023-04-22T15:48:48.859Z,97468.00
2023-04-22T15:51:17.110Z,97467.34
2023-04-22T15:53:47.256Z,97474.47
2023-04-22T15:56:15.361Z,97466.84
2023-04-22T15:58:42.304Z,97471.56
2023-04-22T16:01:18.885Z,97472.41
2023-04-22T16:03:48.326Z,97470.41
2023-04-22T16:06:16.688Z,97475.81
2023-04-22T16:08:45.601Z,97476.75
2023-04-22T16:11:15.255Z,97475.38
2023-04-22T16:13:42.526Z,97471.84
2023-04-22T16:16:09.835Z,97476.69
2023-04-22T16:18:37.656Z,97470.13
2023-04-22T16:21:05.878Z,97475.28
2023-04-22T16:23:34.500Z,97477.22
2023-04-22T16:26:02.806Z,97472.84
2023-04-22T16:28:29.853Z,97478.06
2023-04-22T16:30:56.894Z,97475.81
2023-04-22T16:33:25.128Z,97466.56
2023-04-22T16:35:52.104Z,97472.97
2023-04-22T16:38:19.131Z,97475.88
2023-04-22T16:40:46.359Z,97472.84
2023-04-22T16:43:13.282Z,97472.41
2023-04-22T16:45:40.573Z,97477.00
2023-04-22T16:48:07.595Z,97477.06
2023-04-22T16:50:34.636Z,97471.50
2023-04-22T16:53:01.810Z,97475.63
2023-04-22T16:55:28.763Z,97473.97
2023-04-22T16:57:56.052Z,97474.28
2023-04-22T17:00:24.094Z,97471.31
2023-04-22T17:02:51.564Z,97471.16
2023-04-22T17:05:18.719Z,97471.59
2023-04-22T17:07:45.826Z,97463.78
2023-04-22T17:10:12.760Z,97469.47
2023-04-22T17:12:40.003Z,97473.22
2023-04-22T17:15:08.223Z,97469.38
2023-04-22T17:17:35.669Z,97472.94
2023-04-22T17:20:02.748Z,97468.38
2023-04-22T17:22:29.907Z,97475.91
2023-04-22T17:24:58.760Z,97474.56
2023-04-22T17:27:25.931Z,97462.50
2023-04-22T17:29:53.197Z,97465.34
2023-04-22T17:32:20.265Z,97473.22
2023-04-22T17:34:50.397Z,97472.66
2023-04-22T17:37:17.542Z,97476.69
2023-04-22T17:39:44.517Z,97470.81
2023-04-22T17:42:12.021Z,97479.69
2023-04-22T17:44:39.371Z,97475.38
2023-04-22T17:47:07.455Z,97477.53
2023-04-22T17:49:34.728Z,97480.16
2023-04-22T17:52:03.026Z,97480.22
2023-04-22T17:54:30.088Z,97478.59
2023-04-22T17:56:57.126Z,97484.19
2023-04-22T17:59:27.194Z,97490.59
2023-04-22T18:01:54.306Z,97492.28
2023-04-22T18:04:21.558Z,97489.81
2023-04-22T18:06:51.541Z,97504.94
2023-04-22T18:09:18.642Z,97520.28
2023-04-22T18:11:45.789Z,97524.31
2023-04-22T18:14:12.718Z,97529.44
2023-04-22T18:16:39.679Z,97537.75
2023-04-22T18:19:06.934Z,97526.72
2023-04-22T18:21:34.507Z,97538.28
2023-04-22T18:24:02.644Z,97531.88
2023-04-22T18:26:29.632Z,97535.88
2023-04-22T18:28:56.643Z,97527.28
2023-04-22T18:31:24.069Z,97534.72
2023-04-22T18:33:51.086Z,97543.38
2023-04-22T18:36:18.602Z,97543.69
2023-04-22T18:38:45.745Z,97548.16
2023-04-22T18:41:13.608Z,97553.06
2023-04-22T18:43:40.924Z,97564.09
2023-04-22T18:46:08.536Z,97572.97
2023-04-22T18:48:35.622Z,97579.38
2023-04-22T18:51:02.600Z,97581.81
2023-04-22T18:53:29.623Z,97590.53
2023-04-22T18:55:56.615Z,97588.69
2023-04-22T18:58:24.513Z,97603.75
2023-04-22T19:00:51.575Z,97596.38
2023-04-22T19:03:19.686Z,97608.50
2023-04-22T19:05:46.862Z,97611.13
2023-04-22T19:08:17.362Z,97614.66
2023-04-22T19:10:44.841Z,97621.25
2023-04-22T19:13:22.244Z,97617.00
2023-04-22T19:15:56.173Z,97619.03
2023-04-22T19:18:23.158Z,97627.50
2023-04-22T19:20:50.965Z,97637.47
2023-04-22T19:23:18.175Z,97642.28
2023-04-22T19:25:45.787Z,97651.97
2023-04-22T19:28:13.124Z,97659.66
2023-04-22T19:30:40.184Z,97660.00
2023-04-22T19:33:07.443Z,97657.97
2023-04-22T19:35:34.399Z,97669.09
2023-04-22T19:38:01.408Z,97666.16
2023-04-22T19:40:29.285Z,97680.22
2023-04-22T19:42:58.948Z,97676.81
2023-04-22T19:45:27.036Z,97684.03
2023-04-22T19:47:54.303Z,97685.75
2023-04-22T19:50:21.846Z,97687.38
2023-04-22T19:52:50.920Z,97701.97
2023-04-22T19:55:21.777Z,97698.03
2023-04-22T19:57:52.558Z,97687.59
2023-04-22T20:00:20.440Z,97693.19
2023-04-22T20:02:47.859Z,97690.06
2023-04-22T20:05:15.448Z,97680.75
2023-04-22T20:07:44.434Z,97675.06
2023-04-22T20:10:11.732Z,97672.69
2023-04-22T20:12:38.744Z,97670.78
2023-04-22T20:15:06.739Z,97666.28
2023-04-22T20:17:38.450Z,97660.41
2023-04-22T20:20:07.278Z,97657.50
2023-04-22T20:22:34.991Z,97656.75
2023-04-22T20:25:05.448Z,97666.41
2023-04-22T20:27:34.427Z,97651.72
2023-04-22T20:30:02.194Z,97647.94
2023-04-22T20:32:29.613Z,97644.66
2023-04-22T20:34:58.503Z,97638.94
2023-04-22T20:37:27.128Z,97633.31
2023-04-22T20:39:54.752Z,97631.97
2023-04-22T20:42:22.035Z,97625.53
2023-04-22T20:44:49.019Z,97628.97
2023-04-22T20:47:16.471Z,97615.13
2023-04-22T20:49:44.019Z,97613.16
2023-04-22T20:52:12.357Z,97602.78
2023-04-22T20:54:40.292Z,97606.50
2023-04-22T20:57:08.174Z,97613.63
2023-04-22T20:59:35.898Z,97610.00
2023-04-22T21:02:06.618Z,97603.28
2023-04-22T21:04:34.631Z,97605.16
2023-04-22T21:07:07.182Z,97604.63
2023-04-22T21:09:34.622Z,97602.69
2023-04-22T21:12:02.492Z,97599.59
2023-04-22T21:14:29.842Z,97599.28
2023-04-22T21:17:35.857Z,97590.34
2023-04-22T21:20:09.237Z,97604.19
2023-04-22T21:22:37.793Z,97603.50
2023-04-22T21:25:05.987Z,97611.38
2023-04-22T21:27:33.117Z,97607.53
2023-04-22T21:30:00.865Z,97612.41
2023-04-22T21:32:29.404Z,97613.94
2023-04-22T21:34:56.783Z,97598.41
2023-04-22T21:37:24.397Z,97605.38
2023-04-22T21:39:51.438Z,97608.28
2023-04-22T21:42:18.494Z,97616.75
2023-04-22T21:44:49.692Z,97620.41
2023-04-22T21:47:17.128Z,97628.22
2023-04-22T21:49:45.875Z,97629.44
2023-04-22T21:52:12.813Z,97630.28
2023-04-22T21:54:39.957Z,97622.59
2023-04-22T21:57:07.105Z,97635.47
2023-04-22T21:59:34.177Z,97630.91
2023-04-22T22:02:01.741Z,97627.56
2023-04-22T22:04:28.854Z,97625.06
2023-04-22T22:06:56.087Z,97619.88
2023-04-22T22:09:23.034Z,97622.69
2023-04-22T22:11:49.924Z,97620.53
2023-04-22T22:14:17.250Z,97624.34
2023-04-22T22:16:44.627Z,97622.94
2023-04-22T22:19:11.621Z,97625.75
2023-04-22T22:21:38.706Z,97615.84
2023-04-22T22:24:06.057Z,97621.75
2023-04-22T22:26:33.061Z,97619.00
2023-04-22T22:28:59.987Z,97623.03
2023-04-22T22:31:27.661Z,97623.72
2023-04-22T22:33:55.265Z,97623.38
2023-04-22T22:36:22.228Z,97624.31
2023-04-22T22:38:49.236Z,97622.13
2023-04-22T22:41:16.197Z,97623.66
2023-04-22T22:43:43.690Z,97627.94
2023-04-22T22:46:10.771Z,97637.19
2023-04-22T22:48:38.149Z,97627.53
2023-04-22T22:51:05.135Z,97633.16
2023-04-22T22:53:34.235Z,97638.75
2023-04-22T22:56:01.167Z,97636.81
2023-04-22T22:58:28.305Z,97627.56
2023-04-22T23:00:55.358Z,97624.75
2023-04-22T23:03:22.596Z,97621.69
2023-04-22T23:05:49.702Z,97618.25
2023-04-22T23:08:16.826Z,97621.97
2023-04-22T23:10:43.864Z,97616.44
2023-04-22T23:13:10.875Z,97609.94
2023-04-22T23:15:37.950Z,97609.72
2023-04-22T23:18:05.064Z,97603.84
2023-04-22T23:20:32.765Z,97602.91
2023-04-22T23:23:01.554Z,97608.53
2023-04-22T23:25:29.506Z,97601.00
2023-04-22T23:27:56.691Z,97601.13
2023-04-22T23:30:24.321Z,97604.81
2023-04-22T23:32:52.115Z,97597.91
2023-04-22T23:35:20.488Z,97600.25
2023-04-22T23:37:51.070Z,97596.94
2023-04-22T23:40:18.086Z,97599.41
2023-04-22T23:42:45.016Z,97589.81
2023-04-22T23:45:12.377Z,97591.50
2023-04-22T23:47:39.619Z,97598.44
2023-04-22T23:50:07.514Z,97593.88
2023-04-22T23:52:40.611Z,97588.63
2023-04-22T23:55:13.846Z,97581.56
2023-04-22T23:57:41.114Z,97585.22
